createdAt,value
2022-12-05T00:01:43.783Z,286.27
2022-12-05T00:04:13.052Z,285.88
2022-12-05T00:06:41.616Z,305.52
2022-12-05T00:09:10.458Z,293.70
2022-12-05T00:11:39.275Z,300.00
2022-12-05T00:14:08.652Z,293.52
2022-12-05T00:16:38.956Z,270.67
2022-12-05T00:19:07.913Z,302.13
2022-12-05T00:21:36.791Z,296.85
2022-12-05T00:24:05.642Z,285.10
2022-12-05T00:26:33.279Z,275.35
2022-12-05T00:29:01.119Z,263.52
2022-12-05T00:31:29.049Z,295.45
2022-12-05T00:33:59.290Z,285.20
2022-12-05T00:36:29.146Z,291.15
2022-12-05T00:38:58.628Z,293.33
2022-12-05T00:41:27.677Z,280.55
2022-12-05T00:43:56.080Z,280.00
2022-12-05T00:46:25.774Z,285.43
2022-12-05T00:48:54.088Z,282.60
2022-12-05T00:51:28.320Z,303.83
2022-12-05T00:53:58.484Z,290.67
2022-12-05T00:56:27.523Z,298.92
2022-12-05T00:58:56.219Z,297.42
2022-12-05T01:01:36.028Z,331.83
2022-12-05T01:04:15.656Z,290.10
2022-12-05T01:06:43.541Z,276.90
2022-12-05T01:09:14.485Z,300.52
2022-12-05T01:11:49.909Z,293.02
2022-12-05T01:14:21.543Z,309.40
2022-12-05T01:16:50.131Z,262.20
2022-12-05T01:19:20.679Z,274.60
2022-12-05T01:21:48.139Z,271.08
2022-12-05T01:24:16.360Z,271.05
2022-12-05T01:26:43.905Z,286.10
2022-12-05T01:29:12.340Z,298.00
2022-12-05T01:31:39.870Z,275.57
2022-12-05T01:34:13.445Z,274.42
2022-12-05T01:36:41.213Z,244.35
2022-12-05T01:39:09.293Z,268.30
2022-12-05T01:41:39.030Z,247.68
2022-12-05T01:44:13.586Z,248.57
2022-12-05T01:46:49.131Z,274.20
2022-12-05T01:49:18.922Z,240.32
2022-12-05T01:51:48.357Z,252.60
2022-12-05T01:56:49.818Z,244.35
2022-12-05T01:59:19.956Z,253.75
2022-12-05T02:01:47.317Z,265.23
2022-12-05T02:04:14.847Z,245.25
2022-12-05T02:06:42.085Z,264.45
2022-12-05T02:09:09.640Z,247.98
2022-12-05T02:11:51.751Z,254.30
2022-12-05T02:14:31.569Z,264.25
2022-12-05T02:17:17.727Z,267.88
2022-12-05T02:20:26.787Z,264.25
2022-12-05T02:23:20.474Z,269.77
2022-12-05T02:26:08.912Z,246.75
2022-12-05T02:28:57.820Z,264.17
2022-12-05T02:31:35.561Z,252.38
2022-12-05T02:34:11.126Z,250.35
2022-12-05T02:36:43.579Z,259.88
2022-12-05T02:39:35.791Z,265.58
2022-12-05T02:42:11.522Z,251.00
2022-12-05T02:44:49.744Z,270.90
2022-12-05T02:47:20.055Z,254.63
2022-12-05T02:49:48.479Z,225.57
2022-12-05T02:52:17.698Z,225.25
2022-12-05T02:54:48.020Z,207.52
2022-12-05T02:57:16.151Z,233.05
2022-12-05T02:59:43.388Z,205.73
2022-12-05T03:02:32.913Z,209.30
2022-12-05T03:05:11.002Z,201.60
2022-12-05T03:07:39.005Z,196.70
2022-12-05T03:10:10.492Z,198.73
2022-12-05T03:12:45.423Z,199.00
2022-12-05T03:15:20.337Z,198.52
2022-12-05T03:18:20.381Z,188.05
2022-12-05T03:21:24.933Z,185.82
2022-12-05T03:23:57.547Z,175.93
2022-12-05T03:26:41.635Z,195.43
2022-12-05T03:29:26.816Z,186.00
2022-12-05T03:32:06.238Z,182.50
2022-12-05T03:34:47.073Z,185.70
2022-12-05T03:37:32.359Z,184.50
2022-12-05T03:40:07.591Z,199.50
2022-12-05T03:42:36.519Z,188.85
2022-12-05T03:45:09.646Z,191.80
2022-12-05T03:47:48.636Z,189.23
2022-12-05T03:50:28.162Z,188.70
2022-12-05T03:53:21.570Z,169.20
2022-12-05T03:55:57.433Z,179.00
2022-12-05T03:58:54.417Z,175.57
2022-12-05T04:01:23.532Z,178.13
2022-12-05T04:03:55.454Z,173.85
2022-12-05T04:06:35.135Z,180.20
2022-12-05T04:09:24.458Z,169.88
2022-12-05T04:14:33.987Z,176.82
2022-12-05T04:17:08.781Z,163.43
2022-12-05T04:20:01.071Z,166.85
2022-12-05T04:22:28.737Z,152.70
2022-12-05T04:25:17.019Z,150.45
2022-12-05T04:27:50.712Z,160.02
2022-12-05T04:30:23.658Z,148.18
2022-12-05T04:33:02.847Z,156.50
2022-12-05T04:35:38.194Z,135.68
2022-12-05T04:38:19.218Z,143.40
2022-12-05T04:41:01.197Z,147.48
2022-12-05T04:43:30.805Z,140.65
2022-12-05T04:46:00.641Z,132.75
2022-12-05T04:48:30.950Z,146.63
2022-12-05T04:51:07.747Z,141.73
2022-12-05T04:53:36.567Z,137.98
2022-12-05T04:56:05.351Z,120.75
2022-12-05T04:58:33.200Z,135.02
2022-12-05T05:01:08.133Z,143.25
2022-12-05T05:03:50.819Z,136.77
2022-12-05T05:06:18.448Z,133.43
2022-12-05T05:08:54.019Z,138.80
2022-12-05T05:11:26.696Z,139.02
2022-12-05T05:13:54.612Z,143.52
2022-12-05T05:16:27.560Z,130.15
2022-12-05T05:18:55.829Z,120.35
2022-12-05T05:21:31.857Z,121.72
2022-12-05T05:23:59.836Z,120.97
2022-12-05T05:26:28.450Z,117.38
2022-12-05T05:28:57.436Z,114.63
2022-12-05T05:31:25.358Z,117.32
2022-12-05T05:33:56.212Z,119.55
2022-12-05T05:36:25.271Z,110.13
2022-12-05T05:38:57.921Z,110.80
2022-12-05T05:41:27.520Z,107.00
2022-12-05T05:43:55.250Z,103.90
2022-12-05T05:46:24.875Z,111.97
2022-12-05T05:48:52.594Z,107.75
2022-12-05T05:51:20.679Z,98.50
2022-12-05T05:53:48.520Z,101.72
2022-12-05T05:56:21.722Z,84.43
2022-12-05T05:59:00.272Z,92.60
2022-12-05T06:01:27.877Z,92.43
2022-12-05T06:03:55.395Z,97.47
2022-12-05T06:06:25.241Z,88.10
2022-12-05T06:08:52.715Z,89.57
2022-12-05T06:11:25.828Z,88.75
2022-12-05T06:13:54.762Z,97.30
2022-12-05T06:16:22.309Z,98.28
2022-12-05T06:18:52.876Z,95.30
2022-12-05T06:21:20.674Z,86.68
2022-12-05T06:23:48.054Z,95.80
2022-12-05T06:26:18.699Z,83.07
2022-12-05T06:28:46.339Z,86.85
2022-12-05T06:31:19.973Z,91.03
2022-12-05T06:33:47.542Z,83.35
2022-12-05T06:36:18.878Z,77.75
2022-12-05T06:38:46.248Z,81.22
2022-12-05T06:41:18.663Z,78.68
2022-12-05T06:43:46.327Z,77.38
2022-12-05T06:46:15.825Z,87.20
2022-12-05T06:48:43.320Z,85.30
2022-12-05T06:51:12.370Z,84.18
2022-12-05T06:53:39.829Z,81.00
2022-12-05T06:56:16.716Z,85.57
2022-12-05T06:58:46.046Z,80.70
2022-12-05T07:01:32.797Z,93.20
2022-12-05T07:04:00.323Z,78.65
2022-12-05T07:06:28.115Z,79.40
2022-12-05T07:08:55.479Z,76.82
2022-12-05T07:11:22.654Z,76.20
2022-12-05T07:13:49.914Z,77.70
2022-12-05T07:16:17.272Z,75.75
2022-12-05T07:18:44.623Z,67.55
2022-12-05T07:21:14.667Z,76.63
2022-12-05T07:23:44.032Z,79.35
2022-12-05T07:26:15.590Z,77.78
2022-12-05T07:28:43.445Z,77.47
2022-12-05T07:31:13.497Z,70.65
2022-12-05T07:33:40.808Z,71.60
2022-12-05T07:36:10.905Z,69.40
2022-12-05T07:38:38.310Z,69.72
2022-12-05T07:41:12.790Z,62.30
2022-12-05T07:43:41.285Z,64.68
2022-12-05T07:46:09.427Z,66.80
2022-12-05T07:48:36.672Z,60.88
2022-12-05T07:51:05.509Z,59.47
2022-12-05T07:53:33.515Z,55.67
2022-12-05T07:56:02.239Z,53.50
2022-12-05T07:58:30.031Z,51.97
2022-12-05T08:00:58.259Z,58.80
2022-12-05T08:03:25.511Z,53.75
2022-12-05T08:05:52.834Z,55.72
2022-12-05T08:08:20.114Z,57.75
2022-12-05T08:10:47.389Z,56.05
2022-12-05T08:13:14.637Z,62.92
2022-12-05T08:15:41.832Z,52.05
2022-12-05T08:18:09.004Z,56.17
2022-12-05T08:20:36.200Z,56.20
2022-12-05T08:23:03.428Z,56.53
2022-12-05T08:25:30.777Z,60.30
2022-12-05T08:27:58.053Z,65.85
2022-12-05T08:30:25.343Z,56.58
2022-12-05T08:32:52.955Z,59.67
2022-12-05T08:35:20.505Z,62.97
2022-12-05T08:37:50.687Z,59.97
2022-12-05T08:40:18.314Z,59.97
2022-12-05T08:42:48.702Z,59.28
2022-12-05T08:45:18.319Z,57.80
2022-12-05T08:47:45.882Z,53.10
2022-12-05T08:50:14.006Z,53.72
2022-12-05T08:52:41.540Z,58.10
2022-12-05T08:55:12.079Z,57.75
2022-12-05T08:57:39.491Z,57.55
2022-12-05T09:00:07.273Z,53.35
2022-12-05T09:02:34.546Z,57.95
2022-12-05T09:05:13.537Z,54.13
2022-12-05T09:07:49.304Z,55.05
2022-12-05T09:10:16.846Z,60.78
2022-12-05T09:12:44.216Z,57.25
2022-12-05T09:15:12.752Z,61.28
2022-12-05T09:17:40.293Z,64.80
2022-12-05T09:20:13.970Z,57.13
2022-12-05T09:22:42.252Z,65.78
2022-12-05T09:25:10.157Z,70.38
2022-12-05T09:27:38.662Z,71.07
2022-12-05T09:30:07.444Z,77.77
2022-12-05T09:32:37.550Z,73.97
2022-12-05T09:35:05.158Z,72.88
2022-12-05T09:37:40.295Z,69.97
2022-12-05T09:40:10.405Z,69.90
2022-12-05T09:42:54.174Z,73.75
2022-12-05T09:45:30.321Z,75.07
2022-12-05T09:48:16.829Z,80.00
2022-12-05T09:51:00.746Z,75.30
2022-12-05T09:53:33.131Z,73.22
2022-12-05T09:56:05.867Z,73.18
2022-12-05T09:58:50.514Z,73.00
2022-12-05T10:01:35.800Z,70.57
2022-12-05T10:04:02.915Z,67.55
2022-12-05T10:06:36.631Z,69.57
2022-12-05T10:09:15.431Z,73.47
2022-12-05T10:12:05.794Z,75.40
2022-12-05T10:14:51.599Z,74.18
2022-12-05T10:17:30.474Z,83.38
2022-12-05T10:20:01.108Z,77.72
2022-12-05T10:22:53.476Z,79.20
2022-12-05T10:25:22.710Z,72.90
2022-12-05T10:27:52.704Z,75.97
2022-12-05T10:30:25.211Z,79.18
2022-12-05T10:32:59.360Z,78.03
2022-12-05T10:35:38.487Z,79.30
2022-12-05T10:38:22.637Z,75.95
2022-12-05T10:40:52.640Z,76.90
2022-12-05T10:43:28.829Z,75.30
2022-12-05T10:45:56.644Z,72.20
2022-12-05T10:48:24.701Z,81.22
2022-12-05T10:50:56.808Z,76.05
2022-12-05T10:53:43.325Z,70.55
2022-12-05T10:56:42.910Z,73.63
2022-12-05T10:59:22.946Z,72.45
2022-12-05T11:02:00.909Z,75.68
2022-12-05T11:04:44.579Z,83.95
2022-12-05T11:07:43.366Z,80.93
2022-12-05T11:10:36.625Z,82.80
2022-12-05T11:13:19.178Z,80.32
2022-12-05T11:15:52.252Z,76.97
2022-12-05T11:18:25.669Z,86.25
2022-12-05T11:20:53.180Z,70.80
2022-12-05T11:23:28.977Z,81.82
2022-12-05T11:26:00.551Z,80.53
2022-12-05T11:28:33.506Z,144.43
2022-12-05T11:31:05.148Z,72.28
2022-12-05T11:33:36.775Z,98.05
2022-12-05T11:36:35.854Z,150.30
2022-12-05T11:39:03.146Z,111.07
2022-12-05T11:42:01.307Z,72.93
2022-12-05T11:44:47.416Z,77.45
2022-12-05T11:47:51.794Z,190.75
2022-12-05T11:50:25.232Z,276.58
2022-12-05T11:53:16.753Z,243.88
2022-12-05T11:55:49.243Z,106.32
2022-12-05T11:58:46.745Z,80.28
2022-12-05T12:01:32.088Z,154.27
2022-12-05T12:04:18.181Z,87.53
2022-12-05T12:06:55.096Z,80.22
2022-12-05T12:09:39.431Z,65.72
2022-12-05T12:12:22.711Z,68.35
2022-12-05T12:15:07.391Z,71.10
2022-12-05T12:17:55.297Z,81.18
2022-12-05T12:20:54.695Z,74.43
2022-12-05T12:24:01.409Z,77.47
2022-12-05T12:26:50.246Z,73.93
2022-12-05T12:29:56.868Z,99.25
2022-12-05T12:32:36.470Z,75.93
2022-12-05T12:35:15.521Z,75.10
2022-12-05T12:37:52.708Z,78.15
2022-12-05T12:40:28.303Z,83.18
2022-12-05T12:43:51.997Z,77.32
2022-12-05T12:46:20.106Z,79.20
2022-12-05T12:48:59.104Z,90.32
2022-12-05T12:51:26.578Z,80.05
2022-12-05T12:54:08.701Z,84.78
2022-12-05T12:56:46.456Z,89.60
2022-12-05T12:59:17.090Z,90.85
2022-12-05T13:01:53.338Z,89.85
2022-12-05T13:04:24.929Z,86.10
2022-12-05T13:07:01.377Z,88.43
2022-12-05T13:09:37.331Z,88.50
2022-12-05T13:12:11.879Z,88.55
2022-12-05T13:14:41.309Z,92.28
2022-12-05T13:19:45.861Z,99.57
2022-12-05T13:22:13.506Z,96.03
2022-12-05T13:24:45.678Z,106.45
2022-12-05T13:27:21.879Z,97.65
2022-12-05T13:29:58.866Z,99.80
2022-12-05T13:32:40.846Z,98.90
2022-12-05T13:35:07.916Z,101.95
2022-12-05T13:37:53.926Z,108.40
2022-12-05T13:40:44.089Z,105.35
2022-12-05T13:43:13.236Z,108.93
2022-12-05T13:45:42.018Z,103.15
2022-12-05T13:48:22.866Z,104.97
2022-12-05T13:50:55.658Z,112.28
2022-12-05T13:53:33.288Z,103.10
2022-12-05T13:56:15.672Z,117.30
2022-12-05T13:59:09.899Z,108.05
2022-12-05T14:01:53.740Z,108.97
2022-12-05T14:04:44.836Z,117.32
2022-12-05T14:07:12.467Z,121.78
2022-12-05T14:09:54.137Z,116.80
2022-12-05T14:12:21.209Z,115.30
2022-12-05T14:14:57.185Z,112.53
2022-12-05T14:17:30.852Z,145.18
2022-12-05T14:20:25.175Z,121.18
2022-12-05T14:23:17.787Z,112.03
2022-12-05T14:26:14.051Z,118.85
2022-12-05T14:29:25.133Z,104.65
2022-12-05T14:32:09.963Z,110.15
2022-12-05T14:35:15.594Z,126.80
2022-12-05T14:38:22.751Z,108.45
2022-12-05T14:40:50.179Z,111.55
2022-12-05T14:43:30.009Z,107.45
2022-12-05T14:45:57.390Z,112.53
2022-12-05T14:48:33.657Z,110.53
2022-12-05T14:51:01.499Z,120.07
2022-12-05T14:53:39.626Z,107.32
2022-12-05T14:56:22.631Z,116.30
2022-12-05T14:59:21.326Z,125.97
2022-12-05T15:01:52.449Z,107.00
2022-12-05T15:04:41.474Z,112.90
2022-12-05T15:07:18.413Z,122.78
2022-12-05T15:10:01.484Z,115.35
2022-12-05T15:12:57.543Z,108.63
2022-12-05T15:15:44.631Z,112.80
2022-12-05T15:18:20.824Z,111.93
2022-12-05T15:21:13.551Z,113.55
2022-12-05T15:23:48.647Z,115.55
2022-12-05T15:29:15.853Z,113.07
2022-12-05T15:31:48.690Z,120.60
2022-12-05T15:34:26.340Z,110.00
2022-12-05T15:37:13.968Z,116.13
2022-12-05T15:40:12.142Z,120.18
2022-12-05T15:42:47.086Z,121.05
2022-12-05T15:45:14.602Z,126.38
2022-12-05T15:47:48.351Z,126.95
2022-12-05T15:50:36.949Z,113.90
2022-12-05T15:53:34.376Z,123.68
2022-12-05T15:56:26.437Z,111.47
2022-12-05T15:59:06.027Z,122.50
2022-12-05T16:01:35.807Z,118.53
2022-12-05T16:04:15.939Z,114.60
2022-12-05T16:06:46.454Z,118.38
2022-12-05T16:09:22.286Z,117.43
2022-12-05T16:11:53.263Z,119.93
2022-12-05T16:14:43.711Z,114.35
2022-12-05T16:17:14.469Z,116.15
2022-12-05T16:19:41.743Z,112.05
2022-12-05T16:22:14.717Z,108.93
2022-12-05T16:25:02.489Z,105.10
2022-12-05T16:27:34.582Z,110.70
2022-12-05T16:30:12.555Z,105.30
2022-12-05T16:32:40.869Z,113.35
2022-12-05T16:35:31.067Z,113.28
2022-12-05T16:38:11.283Z,108.93
2022-12-05T16:40:54.884Z,113.97
2022-12-05T16:43:31.859Z,112.85
2022-12-05T16:46:15.454Z,103.57
2022-12-05T16:48:47.639Z,111.30
2022-12-05T16:51:39.955Z,102.72
2022-12-05T16:54:08.597Z,110.10
2022-12-05T16:56:36.366Z,107.47
2022-12-05T16:59:14.476Z,96.53
2022-12-05T17:01:41.720Z,91.07
2022-12-05T17:04:11.531Z,99.22
2022-12-05T17:06:39.367Z,89.32
2022-12-05T17:09:13.291Z,91.30
2022-12-05T17:11:42.978Z,94.30
2022-12-05T17:14:18.158Z,95.63
2022-12-05T17:16:45.909Z,91.10
2022-12-05T17:19:13.805Z,85.47
2022-12-05T17:21:42.584Z,93.25
2022-12-05T17:24:16.358Z,88.10
2022-12-05T17:26:44.152Z,89.75
2022-12-05T17:29:12.166Z,95.43
2022-12-05T17:31:39.482Z,92.55
2022-12-05T17:34:15.880Z,97.50
2022-12-05T17:36:44.633Z,97.55
2022-12-05T17:39:12.162Z,93.97
2022-12-05T17:41:39.699Z,92.72
2022-12-05T17:44:07.519Z,97.68
2022-12-05T17:46:34.857Z,101.43
2022-12-05T17:49:02.322Z,99.10
2022-12-05T17:51:30.415Z,102.13
2022-12-05T17:53:57.810Z,107.80
2022-12-05T17:56:25.212Z,103.28
2022-12-05T17:58:52.774Z,100.13
2022-12-05T18:01:21.289Z,122.57
2022-12-05T18:03:49.251Z,125.73
2022-12-05T18:06:16.949Z,125.78
2022-12-05T18:08:45.121Z,113.65
2022-12-05T18:11:13.453Z,110.75
2022-12-05T18:13:40.812Z,88.90
2022-12-05T18:16:08.473Z,89.80
2022-12-05T18:18:36.054Z,93.22
2022-12-05T18:21:11.801Z,85.88
2022-12-05T18:23:40.324Z,86.70
2022-12-05T18:26:09.366Z,73.87
2022-12-05T18:28:38.475Z,71.88
2022-12-05T18:31:11.656Z,86.75
2022-12-05T18:33:39.555Z,79.47
2022-12-05T18:36:13.876Z,81.65
2022-12-05T18:38:42.707Z,78.68
2022-12-05T18:41:10.530Z,77.97
2022-12-05T18:43:37.742Z,78.93
2022-12-05T18:46:05.774Z,80.57
2022-12-05T18:48:46.107Z,68.43
2022-12-05T18:51:18.880Z,77.05
2022-12-05T18:53:51.753Z,68.95
2022-12-05T18:56:26.413Z,66.22
2022-12-05T18:59:02.503Z,71.10
2022-12-05T19:01:31.085Z,71.78
2022-12-05T19:03:59.258Z,66.47
2022-12-05T19:06:29.804Z,62.55
2022-12-05T19:08:59.359Z,60.40
2022-12-05T19:11:27.092Z,55.03
2022-12-05T19:13:59.653Z,53.33
2022-12-05T19:16:27.937Z,52.10
2022-12-05T19:18:56.828Z,52.03
2022-12-05T19:21:25.460Z,55.15
2022-12-05T19:23:52.970Z,57.13
2022-12-05T19:26:20.451Z,51.63
2022-12-05T19:28:47.699Z,49.33
2022-12-05T19:31:17.394Z,49.50
2022-12-05T19:33:46.602Z,49.67
2022-12-05T19:36:16.491Z,48.53
2022-12-05T19:38:45.764Z,52.47
2022-12-05T19:41:14.971Z,42.80
2022-12-05T19:43:44.755Z,42.10
2022-12-05T19:46:14.920Z,40.95
2022-12-05T19:48:42.757Z,39.25
2022-12-05T19:51:10.037Z,37.90
2022-12-05T19:53:39.358Z,34.53
2022-12-05T19:56:15.261Z,37.60
2022-12-05T19:58:42.846Z,36.75
2022-12-05T20:01:31.281Z,37.35
2022-12-05T20:04:06.845Z,40.70
2022-12-05T20:06:36.528Z,40.20
2022-12-05T20:09:04.825Z,45.50
2022-12-05T20:11:32.299Z,39.95
2022-12-05T20:14:01.017Z,37.08
2022-12-05T20:16:28.964Z,45.97
2022-12-05T20:18:58.960Z,39.78
2022-12-05T20:21:28.571Z,42.58
2022-12-05T20:23:56.058Z,40.67
2022-12-05T20:26:25.113Z,45.25
2022-12-05T20:28:52.921Z,43.78
2022-12-05T20:31:26.171Z,45.63
2022-12-05T20:33:54.601Z,47.92
2022-12-05T20:36:27.112Z,42.97
2022-12-05T20:39:08.711Z,42.75
2022-12-05T20:41:36.344Z,45.10
2022-12-05T20:44:09.027Z,43.60
2022-12-05T20:46:37.624Z,43.35
2022-12-05T20:49:05.063Z,44.20
2022-12-05T20:51:33.930Z,42.05
2022-12-05T20:54:03.266Z,43.60
2022-12-05T20:59:01.460Z,40.57
2022-12-05T21:01:30.275Z,39.03
2022-12-05T21:03:57.780Z,40.00
2022-12-05T21:06:27.299Z,43.80
2022-12-05T21:08:55.814Z,41.22
2022-12-05T21:11:24.344Z,37.80
2022-12-05T21:13:52.070Z,36.60
2022-12-05T21:16:20.993Z,36.70
2022-12-05T21:18:49.000Z,37.75
2022-12-05T21:21:26.886Z,38.58
2022-12-05T21:23:59.155Z,39.13
2022-12-05T21:26:28.025Z,30.48
2022-12-05T21:28:55.858Z,39.90
2022-12-05T21:31:30.949Z,35.92
2022-12-05T21:34:04.184Z,38.35
2022-12-05T21:36:33.442Z,39.05
2022-12-05T21:39:01.049Z,35.97
2022-12-05T21:41:28.838Z,33.67
2022-12-05T21:43:56.314Z,35.08
2022-12-05T21:46:24.902Z,32.30
2022-12-05T21:48:52.799Z,30.70
2022-12-05T21:51:20.091Z,35.30
2022-12-05T21:53:47.394Z,35.00
2022-12-05T21:56:22.790Z,36.55
2022-12-05T21:58:50.319Z,38.67
2022-12-05T22:01:20.447Z,35.85
2022-12-05T22:03:52.548Z,33.92
2022-12-05T22:06:19.970Z,29.50
2022-12-05T22:08:47.366Z,28.23
2022-12-05T22:11:19.646Z,33.35
2022-12-05T22:13:48.775Z,27.20
2022-12-05T22:16:16.827Z,31.27
2022-12-05T22:18:44.989Z,29.38
2022-12-05T22:21:20.212Z,31.58
2022-12-05T22:23:48.150Z,29.70
2022-12-05T22:26:18.090Z,31.80
2022-12-05T22:28:45.758Z,29.70
2022-12-05T22:31:15.087Z,29.90
2022-12-05T22:36:11.825Z,30.33
2022-12-05T22:38:41.521Z,29.13
2022-12-05T22:41:15.314Z,32.80
2022-12-05T22:43:43.933Z,30.98
2022-12-05T22:46:17.769Z,31.15
2022-12-05T22:48:45.369Z,32.55
2022-12-05T22:51:13.606Z,30.88
2022-12-05T22:53:41.296Z,29.70
2022-12-05T22:56:14.916Z,34.83
2022-12-05T22:58:42.575Z,28.30
2022-12-05T23:01:18.282Z,26.48
2022-12-05T23:03:46.885Z,27.85
2022-12-05T23:06:15.590Z,30.47
2022-12-05T23:08:44.619Z,31.60
2022-12-05T23:11:12.591Z,29.23
2022-12-05T23:13:39.986Z,28.15
2022-12-05T23:16:13.108Z,27.58
2022-12-05T23:18:49.529Z,31.13
2022-12-05T23:21:16.617Z,31.15
2022-12-05T23:23:44.148Z,30.90
2022-12-05T23:26:12.820Z,32.38
2022-12-05T23:28:40.122Z,31.13
2022-12-05T23:31:09.088Z,35.60
2022-12-05T23:33:36.769Z,30.85
2022-12-05T23:36:04.927Z,37.35
2022-12-05T23:38:33.388Z,35.30
2022-12-05T23:41:10.671Z,29.77
2022-12-05T23:43:39.353Z,33.05
2022-12-05T23:46:06.887Z,31.10
2022-12-05T23:48:34.419Z,33.78
2022-12-05T23:51:14.394Z,31.30
2022-12-05T23:53:43.539Z,30.25
2022-12-05T23:56:16.473Z,34.53
2022-12-05T23:58:45.154Z,30.38
